createdAt,value
2023-05-21T00:01:45.573Z,13.66
2023-05-21T00:06:04.107Z,13.68
2023-05-21T00:10:22.089Z,13.73
2023-05-21T00:14:42.124Z,13.74
2023-05-21T00:19:00.040Z,13.81
2023-05-21T00:23:18.906Z,13.87
2023-05-21T00:27:38.004Z,13.87
2023-05-21T00:31:58.600Z,13.88
2023-05-21T00:36:17.138Z,13.94
2023-05-21T00:40:37.703Z,13.95
2023-05-21T00:44:55.798Z,13.94
2023-05-21T00:49:15.160Z,14.04
2023-05-21T00:53:36.103Z,14.09
2023-05-21T00:57:54.976Z,14.11
2023-05-21T01:02:14.452Z,14.18
2023-05-21T01:06:35.526Z,14.18
2023-05-21T01:10:55.661Z,14.14
2023-05-21T01:15:15.082Z,14.12
2023-05-21T01:19:37.512Z,14.15
2023-05-21T01:23:55.901Z,14.16
2023-05-21T01:28:15.420Z,14.19
2023-05-21T01:32:56.884Z,14.21
2023-05-21T01:37:33.599Z,14.21
2023-05-21T01:41:55.449Z,14.24
2023-05-21T01:46:17.928Z,14.16
2023-05-21T01:50:41.419Z,14.30
2023-05-21T01:55:00.410Z,14.26
2023-05-21T01:59:20.053Z,14.25
2023-05-21T02:03:38.716Z,14.24
2023-05-21T02:07:57.344Z,14.25
2023-05-21T02:12:15.031Z,14.26
2023-05-21T02:16:33.668Z,14.32
2023-05-21T02:20:51.341Z,14.33
2023-05-21T02:25:11.446Z,14.37
2023-05-21T02:29:30.472Z,14.37
2023-05-21T02:33:49.139Z,14.40
2023-05-21T02:38:09.361Z,14.37
2023-05-21T02:42:27.463Z,14.37
2023-05-21T02:46:45.488Z,14.35
2023-05-21T02:51:05.359Z,14.36
2023-05-21T02:55:23.698Z,14.30
2023-05-21T02:59:41.198Z,14.29
2023-05-21T03:03:59.759Z,14.26
2023-05-21T03:08:17.929Z,14.21
2023-05-21T03:12:35.451Z,14.19
2023-05-21T03:16:53.540Z,14.19
2023-05-21T03:21:13.844Z,14.22
2023-05-21T03:25:33.360Z,14.25
2023-05-21T03:29:52.098Z,14.25
2023-05-21T03:34:09.948Z,14.29
2023-05-21T03:38:27.532Z,14.29
2023-05-21T03:42:45.573Z,14.30
2023-05-21T03:47:03.115Z,14.30
2023-05-21T03:51:22.305Z,14.19
2023-05-21T03:55:41.478Z,14.05
2023-05-21T04:00:02.874Z,14.00
2023-05-21T04:04:21.523Z,13.94
2023-05-21T04:08:40.374Z,13.94
2023-05-21T04:12:58.470Z,14.02
2023-05-21T04:17:15.989Z,14.01
2023-05-21T04:21:35.124Z,14.09
2023-05-21T04:25:53.692Z,14.15
2023-05-21T04:30:12.097Z,14.19
2023-05-21T04:34:31.021Z,14.24
2023-05-21T04:38:49.181Z,14.35
2023-05-21T04:43:06.639Z,14.44
2023-05-21T04:47:25.606Z,14.48
2023-05-21T04:51:43.831Z,14.43
2023-05-21T04:56:01.736Z,14.24
2023-05-21T05:00:19.914Z,14.19
2023-05-21T05:04:39.413Z,14.14
2023-05-21T05:08:57.778Z,14.18
2023-05-21T05:13:15.349Z,14.44
2023-05-21T05:17:36.231Z,15.01
2023-05-21T05:21:55.658Z,15.52
2023-05-21T05:26:13.214Z,15.77
2023-05-21T05:30:32.225Z,16.07
2023-05-21T05:34:50.056Z,16.24
2023-05-21T05:39:08.184Z,16.39
2023-05-21T05:43:26.603Z,16.53
2023-05-21T05:47:45.618Z,16.74
2023-05-21T05:52:05.707Z,17.00
2023-05-21T05:56:23.775Z,17.14
2023-05-21T06:00:41.665Z,17.38
2023-05-21T06:04:59.457Z,17.55
2023-05-21T06:09:17.037Z,17.83
2023-05-21T06:13:35.032Z,18.00
2023-05-21T06:17:52.639Z,17.97
2023-05-21T06:22:10.723Z,18.18
2023-05-21T06:26:30.068Z,18.52
2023-05-21T06:30:49.487Z,18.66
2023-05-21T06:35:07.437Z,18.75
2023-05-21T06:39:25.656Z,18.79
2023-05-21T06:43:43.226Z,19.07
2023-05-21T06:48:01.991Z,19.42
2023-05-21T06:52:20.084Z,19.55
2023-05-21T06:56:37.702Z,19.63
2023-05-21T07:00:55.302Z,19.80
2023-05-21T07:05:13.367Z,19.87
2023-05-21T07:09:31.292Z,20.07
2023-05-21T07:13:49.168Z,20.07
2023-05-21T07:18:08.270Z,20.38
2023-05-21T07:22:27.954Z,20.66
2023-05-21T07:26:48.066Z,20.83
2023-05-21T07:31:06.068Z,21.02
2023-05-21T07:35:24.322Z,21.03
2023-05-21T07:39:42.370Z,21.10
2023-05-21T07:44:01.880Z,21.24
2023-05-21T07:48:23.685Z,21.32
2023-05-21T07:52:41.321Z,21.62
2023-05-21T07:56:59.951Z,21.75
2023-05-21T08:01:17.540Z,21.78
2023-05-21T08:05:35.753Z,21.78
2023-05-21T08:09:54.870Z,22.00
2023-05-21T08:14:12.466Z,22.05
2023-05-21T08:18:30.687Z,22.20
2023-05-21T08:22:48.553Z,22.31
2023-05-21T08:27:06.252Z,22.37
2023-05-21T08:31:24.043Z,22.54
2023-05-21T08:35:41.802Z,22.65
2023-05-21T08:39:59.909Z,22.71
2023-05-21T08:44:22.913Z,23.26
2023-05-21T08:48:40.922Z,23.02
2023-05-21T08:53:00.568Z,23.82
2023-05-21T08:57:21.329Z,23.36
2023-05-21T09:01:42.863Z,23.57
2023-05-21T09:06:00.891Z,24.49
2023-05-21T09:10:22.628Z,25.23
2023-05-21T09:14:42.652Z,24.70
2023-05-21T09:19:03.010Z,24.64
2023-05-21T09:23:22.807Z,24.91
2023-05-21T09:27:41.545Z,25.33
2023-05-21T09:32:05.990Z,25.73
2023-05-21T09:36:25.778Z,26.94
2023-05-21T09:40:48.850Z,26.49
2023-05-21T09:45:11.349Z,26.33
2023-05-21T09:49:29.880Z,26.67
2023-05-21T09:53:55.920Z,27.42
2023-05-21T09:58:14.672Z,27.33
2023-05-21T10:02:34.143Z,27.86
2023-05-21T10:06:53.033Z,28.13
2023-05-21T10:11:13.037Z,28.36
2023-05-21T10:15:38.884Z,28.31
2023-05-21T10:19:58.182Z,28.94
2023-05-21T10:24:17.085Z,29.08
2023-05-21T10:28:39.239Z,29.49
2023-05-21T10:32:58.220Z,28.69
2023-05-21T10:37:17.391Z,29.58
2023-05-21T10:41:53.754Z,30.88
2023-05-21T10:46:54.866Z,31.51
2023-05-21T10:51:26.845Z,32.23
2023-05-21T10:56:29.635Z,30.97
2023-05-21T11:00:47.849Z,31.16
2023-05-21T11:05:08.203Z,30.09
2023-05-21T11:09:27.848Z,31.17
2023-05-21T11:13:50.685Z,33.01
2023-05-21T11:18:10.375Z,34.37
2023-05-21T11:22:28.441Z,34.15
2023-05-21T11:26:49.066Z,34.93
2023-05-21T11:31:27.820Z,34.25
2023-05-21T11:35:46.496Z,36.23
2023-05-21T11:40:26.439Z,36.33
2023-05-21T11:44:48.734Z,36.71
2023-05-21T11:49:06.938Z,37.18
2023-05-21T11:53:30.656Z,38.67
2023-05-21T11:57:54.262Z,41.32
2023-05-21T12:02:17.146Z,41.12
2023-05-21T12:06:34.877Z,40.65
2023-05-21T12:11:00.564Z,39.57
2023-05-21T12:15:18.649Z,40.94
2023-05-21T12:19:38.048Z,40.58
2023-05-21T12:23:56.519Z,42.45
2023-05-21T12:28:14.370Z,41.69
2023-05-21T12:32:33.336Z,41.21
2023-05-21T12:36:52.755Z,43.70
2023-05-21T12:41:13.754Z,43.73
2023-05-21T12:45:33.158Z,46.26
2023-05-21T12:49:59.637Z,43.28
2023-05-21T12:54:18.300Z,45.12
2023-05-21T12:58:35.870Z,42.71
2023-05-21T13:02:54.611Z,47.03
2023-05-21T13:07:12.203Z,43.65
2023-05-21T13:11:30.092Z,44.68
2023-05-21T13:15:47.803Z,44.21
2023-05-21T13:20:13.430Z,41.06
2023-05-21T13:24:31.555Z,35.03
2023-05-21T13:28:49.152Z,40.20
2023-05-21T13:33:08.613Z,43.41
2023-05-21T13:37:26.358Z,42.90
2023-05-21T13:41:44.748Z,45.10
2023-05-21T13:46:03.156Z,44.72
2023-05-21T13:50:21.226Z,42.88
2023-05-21T13:54:38.806Z,44.30
2023-05-21T13:58:56.668Z,46.80
2023-05-21T14:03:13.657Z,46.59
2023-05-21T14:07:32.707Z,46.70
2023-05-21T14:11:51.048Z,44.08
2023-05-21T14:16:09.154Z,43.67
2023-05-21T14:20:26.720Z,43.01
2023-05-21T14:24:45.829Z,42.56
2023-05-21T14:29:03.412Z,44.76
2023-05-21T14:33:22.013Z,43.46
2023-05-21T14:37:39.763Z,43.17
2023-05-21T14:41:59.210Z,42.04
2023-05-21T14:46:16.986Z,39.96
2023-05-21T14:50:36.709Z,41.42
2023-05-21T14:54:54.678Z,43.52
2023-05-21T14:59:13.136Z,40.98
2023-05-21T15:03:31.102Z,38.63
2023-05-21T15:07:48.997Z,39.20
2023-05-21T15:12:07.660Z,39.52
2023-05-21T15:16:25.447Z,39.65
2023-05-21T15:20:43.408Z,40.30
2023-05-21T15:25:01.759Z,40.14
2023-05-21T15:29:20.890Z,39.14
2023-05-21T15:33:38.623Z,41.52
2023-05-21T15:37:56.267Z,41.08
2023-05-21T15:42:15.191Z,40.79
2023-05-21T15:46:33.166Z,44.44
2023-05-21T15:50:50.938Z,42.37
2023-05-21T15:55:09.455Z,40.17
2023-05-21T15:59:28.448Z,40.14
2023-05-21T16:03:46.786Z,41.10
2023-05-21T16:08:05.440Z,41.50
2023-05-21T16:12:23.309Z,40.36
2023-05-21T16:16:41.698Z,41.23
2023-05-21T16:21:00.257Z,38.04
2023-05-21T16:25:20.587Z,35.33
2023-05-21T16:29:40.988Z,36.99
2023-05-21T16:33:58.785Z,36.27
2023-05-21T16:38:17.298Z,34.01
2023-05-21T16:42:40.055Z,30.32
2023-05-21T16:46:58.264Z,29.07
2023-05-21T16:51:16.650Z,28.55
2023-05-21T16:55:36.610Z,28.65
2023-05-21T16:59:54.468Z,29.26
2023-05-21T17:04:12.434Z,29.79
2023-05-21T17:08:30.916Z,30.51
2023-05-21T17:12:48.673Z,30.28
2023-05-21T17:17:10.557Z,30.14
2023-05-21T17:21:28.144Z,28.75
2023-05-21T17:25:46.594Z,27.60
2023-05-21T17:30:10.248Z,26.25
2023-05-21T17:34:35.822Z,24.49
2023-05-21T17:38:54.899Z,22.51
2023-05-21T17:43:12.838Z,21.07
2023-05-21T17:47:31.173Z,20.08
2023-05-21T17:51:50.952Z,19.52
2023-05-21T17:56:11.599Z,19.12
2023-05-21T18:00:35.446Z,18.66
2023-05-21T18:04:53.379Z,18.25
2023-05-21T18:09:14.445Z,17.93
2023-05-21T18:13:35.593Z,17.59
2023-05-21T18:17:55.993Z,17.36
2023-05-21T18:22:14.472Z,16.93
2023-05-21T18:26:32.182Z,16.52
2023-05-21T18:30:50.091Z,16.26
2023-05-21T18:35:12.412Z,15.87
2023-05-21T18:39:32.254Z,15.78
2023-05-21T18:43:52.963Z,15.98
2023-05-21T18:48:12.059Z,15.97
2023-05-21T18:52:41.840Z,15.93
2023-05-21T18:57:00.993Z,15.80
2023-05-21T19:01:18.713Z,15.65
2023-05-21T19:05:38.285Z,15.42
2023-05-21T19:09:56.442Z,15.45
2023-05-21T19:14:13.996Z,15.20
2023-05-21T19:18:33.027Z,14.98
2023-05-21T19:22:51.256Z,14.79
2023-05-21T19:27:12.720Z,14.56
2023-05-21T19:31:34.832Z,14.44
2023-05-21T19:35:53.546Z,14.44
2023-05-21T19:40:12.164Z,14.35
2023-05-21T19:44:30.549Z,14.52
2023-05-21T19:48:49.154Z,14.26
2023-05-21T19:53:08.464Z,14.18
2023-05-21T19:57:26.544Z,14.02
2023-05-21T20:01:45.702Z,14.06
2023-05-21T20:06:03.925Z,14.05
2023-05-21T20:10:22.025Z,13.98
2023-05-21T20:14:39.464Z,13.87
2023-05-21T20:18:58.563Z,13.85
2023-05-21T20:23:16.941Z,13.73
2023-05-21T20:27:39.103Z,13.63
2023-05-21T20:31:57.029Z,13.46
2023-05-21T20:36:15.525Z,13.19
2023-05-21T20:40:33.163Z,12.98
2023-05-21T20:44:53.066Z,12.90
2023-05-21T20:49:10.762Z,12.65
2023-05-21T20:53:28.462Z,12.46
2023-05-21T20:57:46.477Z,12.25
2023-05-21T21:02:06.160Z,12.11
2023-05-21T21:06:26.264Z,12.02
2023-05-21T21:10:48.516Z,12.06
2023-05-21T21:15:07.986Z,12.21
2023-05-21T21:19:26.148Z,12.36
2023-05-21T21:23:43.925Z,12.42
2023-05-21T21:28:02.359Z,12.35
2023-05-21T21:32:20.581Z,12.30
2023-05-21T21:36:39.951Z,12.35
2023-05-21T21:40:57.569Z,12.25
2023-05-21T21:45:16.884Z,12.21
2023-05-21T21:49:34.596Z,12.18
2023-05-21T21:53:52.981Z,12.09
2023-05-21T21:58:11.260Z,12.02
2023-05-21T22:02:28.817Z,12.06
2023-05-21T22:06:47.420Z,11.97
2023-05-21T22:11:06.771Z,12.05
2023-05-21T22:15:26.314Z,11.98
2023-05-21T22:19:44.257Z,11.84
2023-05-21T22:24:02.530Z,11.49
2023-05-21T22:28:23.350Z,11.27
2023-05-21T22:32:41.232Z,11.18
2023-05-21T22:36:59.438Z,11.29
2023-05-21T22:41:17.152Z,11.19
2023-05-21T22:45:37.313Z,11.06
2023-05-21T22:49:56.092Z,10.75
2023-05-21T22:54:14.994Z,10.53
2023-05-21T22:58:32.596Z,10.41
2023-05-21T23:02:53.846Z,10.30
2023-05-21T23:07:13.147Z,10.22
2023-05-21T23:11:31.171Z,9.97
2023-05-21T23:15:48.892Z,9.78
2023-05-21T23:20:11.463Z,9.64
2023-05-21T23:24:30.882Z,9.46
2023-05-21T23:28:48.895Z,9.26
2023-05-21T23:33:08.535Z,9.15
2023-05-21T23:37:27.047Z,8.94
2023-05-21T23:41:45.273Z,8.85
2023-05-21T23:46:03.455Z,8.72
2023-05-21T23:50:22.178Z,8.60
2023-05-21T23:54:39.774Z,8.53
2023-05-21T23:58:58.094Z,8.43
